createdAt,value
2022-11-17T00:02:23.751Z,9.1
2022-11-17T00:04:25.041Z,9.1
2022-11-17T00:08:27.836Z,9
2022-11-17T00:10:29.219Z,9
2022-11-17T00:12:33.073Z,9
2022-11-17T00:14:32.011Z,9
2022-11-17T00:16:36.726Z,9
2022-11-17T00:18:38.110Z,9
2022-11-17T00:20:39.451Z,9
2022-11-17T00:22:40.872Z,9
2022-11-17T00:24:42.250Z,9
2022-11-17T00:26:43.631Z,8.9
2022-11-17T00:30:49.732Z,8.9
2022-11-17T00:32:51.110Z,8.9
2022-11-17T00:34:52.470Z,8.9
2022-11-17T00:36:53.884Z,8.9
2022-11-17T00:40:56.666Z,8.9
2022-11-17T00:42:58.058Z,8.9
2022-11-17T00:45:02.738Z,8.8
2022-11-17T00:47:04.135Z,8.8
2022-11-17T00:50:07.860Z,8.8
2022-11-17T00:52:09.247Z,8.8
2022-11-17T00:54:10.645Z,8.8
2022-11-17T00:56:12.144Z,8.8
2022-11-17T00:58:16.710Z,8.8
2022-11-17T01:00:18.086Z,8.8
2022-11-17T01:02:19.467Z,8.8
2022-11-17T01:04:20.858Z,8.8
2022-11-17T01:06:22.219Z,8.8
2022-11-17T01:08:23.612Z,8.8
2022-11-17T01:10:25.007Z,8.8
2022-11-17T01:12:29.676Z,8.8
2022-11-17T01:14:31.078Z,8.8
2022-11-17T01:18:33.813Z,8.9
2022-11-17T01:20:35.215Z,8.8
2022-11-17T01:22:36.574Z,8.9
2022-11-17T01:26:42.663Z,8.9
2022-11-17T01:28:44.036Z,8.9
2022-11-17T01:30:45.407Z,8.9
2022-11-17T01:32:46.806Z,8.9
2022-11-17T01:34:49.736Z,8.9
2022-11-17T01:36:51.101Z,8.9
2022-11-17T01:38:52.532Z,8.9
2022-11-17T01:40:57.165Z,8.9
2022-11-17T01:42:58.573Z,8.9
2022-11-17T01:44:59.942Z,9
2022-11-17T01:47:22.920Z,8.9
2022-11-17T01:49:24.276Z,8.9
2022-11-17T01:51:25.667Z,9
2022-11-17T01:53:30.361Z,9
2022-11-17T01:55:31.762Z,9
2022-11-17T01:57:33.127Z,9
2022-11-17T01:59:34.507Z,9
2022-11-17T02:01:35.984Z,9
2022-11-17T02:03:37.641Z,9
2022-11-17T02:05:38.683Z,9
2022-11-17T02:07:43.371Z,9
2022-11-17T02:09:44.769Z,9
2022-11-17T02:11:46.137Z,9
2022-11-17T02:13:47.531Z,9
2022-11-17T02:15:48.909Z,9
2022-11-17T02:17:50.281Z,9.1
2022-11-17T02:19:51.681Z,9.1
2022-11-17T02:21:56.363Z,9.1
2022-11-17T02:23:57.727Z,9.1
2022-11-17T02:25:59.115Z,9.1
2022-11-17T02:28:00.526Z,9.2
2022-11-17T02:30:01.897Z,9.2
2022-11-17T02:32:03.262Z,9.2
2022-11-17T02:34:04.666Z,9.2
2022-11-17T02:36:09.373Z,9.3
2022-11-17T02:38:10.734Z,9.4
2022-11-17T02:40:12.116Z,9.4
2022-11-17T02:41:14.482Z,9.4
2022-11-17T02:43:15.869Z,9.4
2022-11-17T02:47:18.642Z,9.5
2022-11-17T02:49:23.319Z,9.5
2022-11-17T02:51:24.724Z,9.5
2022-11-17T02:53:26.088Z,9.5
2022-11-17T02:55:27.477Z,9.5
2022-11-17T02:57:28.872Z,9.5
2022-11-17T02:59:30.249Z,9.5
2022-11-17T03:03:36.626Z,9.5
2022-11-17T03:05:37.764Z,9.5
2022-11-17T03:07:39.122Z,9.5
2022-11-17T03:09:40.493Z,9.5
2022-11-17T03:11:41.889Z,9.5
2022-11-17T03:13:43.312Z,9.5
2022-11-17T03:15:44.658Z,9.5
2022-11-17T03:17:49.363Z,9.5
2022-11-17T03:19:50.774Z,9.5
2022-11-17T03:21:52.171Z,9.5
2022-11-17T03:23:53.569Z,9.5
2022-11-17T03:25:54.969Z,9.5
2022-11-17T03:27:56.315Z,9.5
2022-11-17T03:29:57.718Z,9.5
2022-11-17T03:32:02.410Z,9.5
2022-11-17T03:34:03.778Z,9.5
2022-11-17T03:36:05.202Z,9.5
2022-11-17T03:37:07.583Z,9.5
2022-11-17T03:39:08.918Z,9.5
2022-11-17T03:41:10.307Z,9.5
2022-11-17T03:43:11.673Z,9.5
2022-11-17T03:45:16.381Z,9.6
2022-11-17T03:47:17.782Z,9.5
2022-11-17T03:49:19.127Z,9.5
2022-11-17T03:51:20.529Z,9.6
2022-11-17T03:53:21.923Z,9.6
2022-11-17T03:55:23.309Z,9.6
2022-11-17T03:57:24.745Z,9.5
2022-11-17T04:05:33.560Z,9.6
2022-11-17T04:07:35.011Z,9.6
2022-11-17T04:09:36.326Z,9.6
2022-11-17T04:11:37.704Z,9.6
2022-11-17T04:13:42.383Z,9.6
2022-11-17T04:15:37.960Z,9.7
2022-11-17T04:17:39.384Z,9.6
2022-11-17T04:19:40.762Z,9.6
2022-11-17T04:21:42.135Z,9.6
2022-11-17T04:23:43.546Z,9.6
2022-11-17T04:25:44.960Z,9.6
2022-11-17T04:27:49.660Z,9.6
2022-11-17T04:29:51.012Z,9.6
2022-11-17T04:32:54.748Z,9.6
2022-11-17T04:34:56.164Z,9.7
2022-11-17T04:36:57.525Z,9.7
2022-11-17T04:41:03.624Z,9.7
2022-11-17T04:43:05.006Z,9.7
2022-11-17T04:45:06.384Z,9.7
2022-11-17T04:47:07.778Z,9.7
2022-11-17T04:51:10.539Z,9.6
2022-11-17T04:53:11.942Z,9.6
2022-11-17T04:55:16.657Z,9.6
2022-11-17T04:57:18.047Z,9.6
2022-11-17T04:59:19.417Z,9.6
2022-11-17T05:01:20.786Z,9.6
2022-11-17T05:03:22.195Z,9.6
2022-11-17T05:05:23.562Z,9.6
2022-11-17T05:07:25.025Z,9.6
2022-11-17T05:09:29.657Z,9.6
2022-11-17T05:11:31.040Z,9.6
2022-11-17T05:13:32.667Z,9.6
2022-11-17T05:15:33.811Z,9.6
2022-11-17T05:17:35.213Z,9.6
2022-11-17T05:19:36.617Z,9.6
2022-11-17T05:21:37.997Z,9.6
2022-11-17T05:23:42.691Z,9.6
2022-11-17T05:25:44.049Z,9.6
2022-11-17T05:27:45.426Z,9.5
2022-11-17T05:32:03.549Z,9.6
2022-11-17T05:34:04.934Z,9.5
2022-11-17T05:36:09.657Z,9.5
2022-11-17T05:42:13.792Z,9.5
2022-11-17T05:44:15.162Z,9.5
2022-11-17T05:46:16.546Z,9.5
2022-11-17T05:48:17.957Z,9.5
2022-11-17T05:50:22.630Z,9.5
2022-11-17T05:52:24.045Z,9.5
2022-11-17T05:54:25.428Z,9.5
2022-11-17T05:56:26.887Z,9.5
2022-11-17T05:58:28.186Z,9.5
2022-11-17T06:00:29.601Z,9.5
2022-11-17T06:02:30.968Z,9.5
2022-11-17T06:04:35.717Z,9.5
2022-11-17T06:06:37.034Z,9.5
2022-11-17T06:08:38.430Z,9.5
2022-11-17T06:10:39.827Z,9.5
2022-11-17T06:12:41.194Z,9.5
2022-11-17T06:14:42.598Z,9.5
2022-11-17T06:16:43.982Z,9.5
2022-11-17T06:18:48.688Z,9.5
2022-11-17T06:20:50.047Z,9.5
2022-11-17T06:22:51.450Z,9.5
2022-11-17T06:23:53.794Z,9.5
2022-11-17T06:25:55.195Z,9.6
2022-11-17T06:27:56.552Z,9.5
2022-11-17T06:29:57.955Z,9.6
2022-11-17T06:34:04.047Z,9.5
2022-11-17T06:36:05.432Z,9.5
2022-11-17T06:38:06.835Z,9.5
2022-11-17T06:42:09.592Z,9.5
2022-11-17T06:44:10.961Z,9.5
2022-11-17T06:46:15.667Z,9.5
2022-11-17T06:48:17.057Z,9.5
2022-11-17T06:50:18.444Z,9.5
2022-11-17T06:52:19.831Z,9.5
2022-11-17T06:54:21.220Z,9.5
2022-11-17T06:58:23.976Z,9.5
2022-11-17T07:00:28.757Z,9.5
2022-11-17T07:02:30.083Z,9.6
2022-11-17T07:08:34.588Z,9.6
2022-11-17T07:12:37.014Z,9.6
2022-11-17T07:18:44.482Z,9.7
2022-11-17T07:27:57.235Z,9.7
2022-11-17T07:34:01.384Z,9.7
2022-11-17T07:38:04.197Z,9.8
2022-11-17T07:40:05.570Z,9.7
2022-11-17T07:42:10.270Z,9.8
2022-11-17T07:48:14.394Z,9.8
2022-11-17T07:50:15.805Z,9.8
2022-11-17T07:52:17.209Z,9.8
2022-11-17T07:56:23.321Z,9.8
2022-11-17T07:58:24.641Z,9.8
2022-11-17T08:12:37.648Z,9.8
2022-11-17T08:14:39.069Z,9.8
2022-11-17T08:15:41.401Z,9.8
2022-11-17T08:17:42.778Z,9.8
2022-11-17T08:19:44.152Z,9.8
2022-11-17T08:21:45.521Z,9.8
2022-11-17T08:23:50.216Z,9.8
2022-11-17T08:25:51.584Z,9.8
2022-11-17T08:27:52.975Z,9.8
2022-11-17T08:29:54.390Z,9.7
2022-11-17T08:31:55.776Z,9.7
2022-11-17T08:35:58.537Z,9.8
2022-11-17T08:38:03.231Z,9.7
2022-11-17T08:40:04.605Z,9.8
2022-11-17T08:42:05.988Z,9.8
2022-11-17T08:44:07.408Z,9.8
2022-11-17T08:46:08.787Z,9.7
2022-11-17T08:48:10.186Z,9.7
2022-11-17T08:50:11.549Z,9.7
2022-11-17T08:52:16.251Z,9.7
2022-11-17T08:54:17.649Z,9.7
2022-11-17T08:56:19.058Z,9.7
2022-11-17T08:58:20.453Z,9.6
2022-11-17T09:00:21.904Z,9.6
2022-11-17T09:02:23.187Z,9.6
2022-11-17T09:04:24.570Z,9.6
2022-11-17T09:06:29.248Z,9.6
2022-11-17T09:08:44.869Z,9.6
2022-11-17T09:10:32.021Z,9.6
2022-11-17T09:12:55.052Z,9.6
2022-11-17T09:14:56.405Z,9.6
2022-11-17T09:16:57.773Z,9.6
2022-11-17T09:21:03.887Z,9.5
2022-11-17T09:23:05.256Z,9.5
2022-11-17T09:25:11.853Z,9.5
2022-11-17T09:27:08.023Z,9.5
2022-11-17T09:29:09.421Z,9.5
2022-11-17T09:31:10.893Z,9.5
2022-11-17T09:35:16.884Z,9.4
2022-11-17T09:37:18.272Z,9.4
2022-11-17T09:39:19.653Z,9.5
2022-11-17T09:41:21.013Z,9.4
2022-11-17T09:43:22.400Z,9.5
2022-11-17T09:45:23.801Z,9.5
2022-11-17T09:47:28.503Z,9.6
2022-11-17T09:49:29.882Z,9.6
2022-11-17T09:51:31.253Z,9.7
2022-11-17T09:53:32.891Z,9.6
2022-11-17T09:55:34.610Z,9.6
2022-11-17T09:57:35.429Z,9.6
2022-11-17T10:03:46.054Z,9.6
2022-11-17T10:05:44.246Z,9.5
2022-11-17T10:06:46.686Z,9.6
2022-11-17T10:08:47.937Z,9.6
2022-11-17T10:14:55.426Z,9.5
2022-11-17T10:16:56.800Z,9.5
2022-11-17T10:18:58.186Z,9.5
2022-11-17T10:20:59.566Z,9.5
2022-11-17T10:23:00.988Z,9.5
2022-11-17T10:29:09.020Z,9.4
2022-11-17T10:31:09.817Z,9.4
2022-11-17T10:37:13.974Z,9.3
2022-11-17T10:39:17.849Z,9.3
2022-11-17T10:41:16.725Z,9.3
2022-11-17T10:43:21.415Z,9.2
2022-11-17T10:45:22.827Z,9.3
2022-11-17T10:47:24.213Z,9.3
2022-11-17T10:51:27.005Z,9.2
2022-11-17T10:53:28.348Z,9.3
2022-11-17T10:55:29.728Z,9.3
2022-11-17T10:57:34.426Z,9.3
2022-11-17T10:59:35.828Z,9.3
2022-11-17T11:01:37.268Z,9.3
2022-11-17T11:06:42.404Z,9.4
2022-11-17T11:08:43.748Z,9.3
2022-11-17T11:10:48.431Z,9.4
2022-11-17T11:12:49.806Z,9.4
2022-11-17T11:16:52.628Z,9.4
2022-11-17T11:18:54.001Z,9.4
2022-11-17T11:20:55.383Z,9.4
2022-11-17T11:25:01.510Z,9.5
2022-11-17T11:27:02.865Z,9.5
2022-11-17T11:31:05.636Z,9.5
2022-11-17T11:33:06.999Z,9.5
2022-11-17T11:35:10.975Z,9.6
2022-11-17T11:37:09.767Z,9.6
2022-11-17T11:39:14.514Z,9.7
2022-11-17T11:41:15.855Z,9.6
2022-11-17T11:43:17.251Z,9.7
2022-11-17T11:45:18.619Z,9.6
2022-11-17T11:47:20.001Z,9.7
2022-11-17T11:49:21.435Z,9.7
2022-11-17T11:51:22.791Z,9.7
2022-11-17T11:53:27.458Z,9.9
2022-11-17T11:55:28.854Z,9.9
2022-11-17T11:57:30.248Z,10
2022-11-17T12:02:35.474Z,10
2022-11-17T12:04:36.770Z,9.9
2022-11-17T12:08:42.837Z,9.9
2022-11-17T12:10:44.201Z,9.9
2022-11-17T12:12:45.576Z,9.8
2022-11-17T12:14:46.949Z,9.9
2022-11-17T12:16:48.468Z,9.8
2022-11-17T12:18:49.758Z,9.8
2022-11-17T12:20:54.450Z,9.7
2022-11-17T12:22:55.841Z,9.7
2022-11-17T12:24:57.231Z,9.7
2022-11-17T12:26:58.603Z,9.7
2022-11-17T12:31:06.608Z,9.7
2022-11-17T12:33:02.790Z,9.7
2022-11-17T12:35:07.468Z,9.7
2022-11-17T12:37:08.846Z,9.7
2022-11-17T12:39:10.242Z,9.7
2022-11-17T12:41:11.604Z,9.7
2022-11-17T12:43:13.022Z,9.7
2022-11-17T12:45:14.420Z,9.8
2022-11-17T12:47:15.813Z,9.7
2022-11-17T12:51:21.912Z,9.8
2022-11-17T12:55:52.091Z,9.9
2022-11-17T12:57:53.472Z,9.8
2022-11-17T12:59:54.889Z,9.8
2022-11-17T13:01:59.572Z,9.8
2022-11-17T13:06:28.182Z,9.8
2022-11-17T13:08:03.716Z,9.8
2022-11-17T13:10:05.152Z,9.8
2022-11-17T13:12:06.494Z,9.8
2022-11-17T13:16:14.077Z,9.8
2022-11-17T13:18:15.448Z,9.7
2022-11-17T13:20:16.857Z,9.8
2022-11-17T13:22:18.257Z,9.7
2022-11-17T13:24:19.637Z,9.8
2022-11-17T13:26:21.000Z,9.8
2022-11-17T13:28:22.378Z,9.6
2022-11-17T13:30:27.094Z,9.6
2022-11-17T13:34:29.911Z,9.6
2022-11-17T13:36:31.260Z,9.6
2022-11-17T13:38:32.624Z,9.6
2022-11-17T13:40:34.050Z,9.6
2022-11-17T13:42:35.404Z,9.6
2022-11-17T13:44:40.100Z,9.6
2022-11-17T13:46:41.476Z,9.5
2022-11-17T13:48:42.867Z,9.6
2022-11-17T13:49:45.240Z,9.5
2022-11-17T13:51:46.633Z,9.5
2022-11-17T13:53:47.972Z,9.5
2022-11-17T13:55:49.362Z,9.5
2022-11-17T13:57:54.095Z,9.5
2022-11-17T13:59:55.448Z,9.5
2022-11-17T14:01:56.843Z,9.5
2022-11-17T14:03:58.246Z,9.5
2022-11-17T14:05:59.603Z,9.5
2022-11-17T14:10:02.461Z,9.4
2022-11-17T14:18:11.256Z,9.5
2022-11-17T14:20:12.654Z,9.5
2022-11-17T14:22:21.404Z,9.5
2022-11-17T14:24:15.789Z,9.5
2022-11-17T14:26:20.103Z,9.6
2022-11-17T14:28:21.598Z,9.6
2022-11-17T14:30:22.883Z,9.6
2022-11-17T14:32:24.237Z,9.6
2022-11-17T14:34:25.625Z,9.6
2022-11-17T14:36:27.014Z,9.6
2022-11-17T14:38:28.404Z,9.6
2022-11-17T14:40:33.139Z,9.6
2022-11-17T14:42:36.168Z,9.6
2022-11-17T14:44:35.865Z,9.6
2022-11-17T14:45:38.213Z,9.6
2022-11-17T14:47:39.613Z,9.6
2022-11-17T14:49:40.991Z,9.6
2022-11-17T14:51:42.369Z,9.6
2022-11-17T14:53:47.043Z,9.5
2022-11-17T14:55:48.419Z,9.4
2022-11-17T14:57:49.790Z,9.4
2022-11-17T14:59:51.187Z,9.4
2022-11-17T15:01:52.573Z,9.6
2022-11-17T15:03:54.045Z,9.6
2022-11-17T15:05:55.364Z,9.5
2022-11-17T15:08:00.055Z,9.5
2022-11-17T15:10:01.465Z,9.5
2022-11-17T15:12:02.829Z,9.4
2022-11-17T15:14:04.210Z,9.5
2022-11-17T15:16:05.590Z,9.4
2022-11-17T15:18:06.973Z,9.5
2022-11-17T15:20:08.381Z,9.5
2022-11-17T15:22:13.037Z,9.5
2022-11-17T15:24:14.889Z,9.5
2022-11-17T15:26:15.863Z,9.5
2022-11-17T15:28:22.341Z,9.5
2022-11-17T15:30:18.632Z,9.6
2022-11-17T15:32:20.020Z,9.6
2022-11-17T15:34:21.398Z,9.5
2022-11-17T15:36:26.080Z,9.6
2022-11-17T15:38:27.474Z,9.6
2022-11-17T15:40:28.918Z,9.6
2022-11-17T15:41:33.027Z,9.6
2022-11-17T15:43:32.606Z,9.6
2022-11-17T15:45:33.973Z,9.6
2022-11-17T15:47:35.378Z,9.6
2022-11-17T15:49:40.092Z,9.6
2022-11-17T15:51:41.461Z,9.6
2022-11-17T15:53:42.819Z,9.6
2022-11-17T15:55:44.218Z,9.5
2022-11-17T15:57:45.592Z,9.5
2022-11-17T15:59:46.970Z,9.5
2022-11-17T16:01:48.343Z,9.5
2022-11-17T16:03:53.073Z,9.5
2022-11-17T16:05:54.453Z,9.5
2022-11-17T16:07:55.826Z,9.5
2022-11-17T16:11:58.668Z,9.5
2022-11-17T16:13:59.989Z,9.5
2022-11-17T16:16:01.348Z,9.5
2022-11-17T16:18:06.058Z,9.5
2022-11-17T16:20:07.515Z,9.5
2022-11-17T16:22:08.856Z,9.5
2022-11-17T16:24:10.215Z,9.5
2022-11-17T16:26:11.610Z,9.6
2022-11-17T16:28:13.010Z,9.5
2022-11-17T16:30:14.415Z,9.5
2022-11-17T16:32:19.098Z,9.5
2022-11-17T16:34:20.458Z,9.6
2022-11-17T16:36:21.844Z,9.5
2022-11-17T16:38:59.781Z,9.5
2022-11-17T16:40:46.262Z,9.5
2022-11-17T16:42:47.660Z,9.5
2022-11-17T16:44:52.403Z,9.4
2022-11-17T16:46:53.912Z,9.4
2022-11-17T16:48:55.160Z,9.4
2022-11-17T16:50:56.517Z,9.5
2022-11-17T16:52:57.894Z,9.4
2022-11-17T16:55:04.341Z,9.5
2022-11-17T16:57:00.801Z,9.5
2022-11-17T16:59:05.397Z,9.6
2022-11-17T17:01:12.015Z,9.5
2022-11-17T17:03:08.249Z,9.5
2022-11-17T17:19:22.545Z,9.4
2022-11-17T17:21:23.945Z,9.4
2022-11-17T17:23:25.286Z,9.4
2022-11-17T17:25:26.706Z,9.5
2022-11-17T17:27:31.350Z,9.4
2022-11-17T17:29:32.732Z,9.4
2022-11-17T17:31:34.126Z,9.4
2022-11-17T17:32:36.467Z,9.4
2022-11-17T17:34:37.848Z,9.5
2022-11-17T17:38:40.636Z,9.4
2022-11-17T17:40:45.349Z,9.3
2022-11-17T17:42:46.704Z,9.2
2022-11-17T17:44:48.103Z,9.2
2022-11-17T17:50:52.252Z,9.3
2022-11-17T17:52:53.626Z,9.3
2022-11-17T17:54:58.320Z,9.3
2022-11-17T17:56:59.705Z,9.2
2022-11-17T17:59:01.119Z,9.2
2022-11-17T18:01:02.466Z,9.1
2022-11-17T18:03:03.908Z,9.3
2022-11-17T18:05:05.250Z,9.2
2022-11-17T18:07:06.697Z,9.3
2022-11-17T18:09:11.319Z,9.2
2022-11-17T18:11:12.742Z,9.2
2022-11-17T18:13:14.129Z,9.1
2022-11-17T18:15:15.513Z,9.1
2022-11-17T18:17:16.875Z,9.2
2022-11-17T18:23:25.261Z,9
2022-11-17T18:27:28.012Z,9
2022-11-17T18:28:30.346Z,9
2022-11-17T18:30:31.771Z,9
2022-11-17T18:32:33.123Z,8.8
2022-11-17T18:34:34.506Z,8.8
2022-11-17T18:36:39.197Z,8.7
2022-11-17T18:38:40.560Z,8.7
2022-11-17T18:40:41.938Z,8.7
2022-11-17T18:42:43.315Z,8.7
2022-11-17T18:44:44.686Z,8.6
2022-11-17T18:46:46.285Z,8.6
2022-11-17T18:51:17.335Z,8.5
2022-11-17T18:52:53.566Z,8.6
2022-11-17T18:54:54.922Z,8.4
2022-11-17T18:56:56.427Z,8.5
2022-11-17T18:58:57.678Z,8.5
2022-11-17T19:05:06.708Z,8.5
2022-11-17T19:13:12.234Z,8.4
2022-11-17T19:15:13.632Z,8.4
2022-11-17T19:17:15.011Z,8.4
2022-11-17T19:19:20.127Z,8.4
2022-11-17T19:21:21.084Z,8.4
2022-11-17T19:23:22.447Z,8.3
2022-11-17T19:24:24.781Z,8.2
2022-11-17T19:26:26.165Z,8.2
2022-11-17T19:32:33.597Z,8.1
2022-11-17T19:38:37.718Z,8
2022-11-17T19:40:39.103Z,8
2022-11-17T19:42:40.504Z,8
2022-11-17T19:44:41.872Z,8
2022-11-17T19:46:46.554Z,8
2022-11-17T19:48:47.907Z,8.1
2022-11-17T19:54:52.076Z,8
2022-11-17T19:56:53.427Z,7.9
2022-11-17T19:58:54.795Z,7.9
2022-11-17T20:00:59.509Z,7.9
2022-11-17T20:03:00.861Z,7.8
2022-11-17T20:05:05.391Z,7.8
2022-11-17T20:07:03.639Z,7.9
2022-11-17T20:11:06.314Z,7.9
2022-11-17T20:13:07.714Z,7.9
2022-11-17T20:15:33.205Z,7.8
2022-11-17T20:17:13.769Z,7.9
2022-11-17T20:19:15.418Z,7.7
2022-11-17T20:21:32.079Z,7.7
2022-11-17T20:23:33.401Z,7.7
2022-11-17T20:25:34.780Z,7.7
2022-11-17T20:27:39.473Z,7.6
2022-11-17T20:31:42.244Z,7.6
2022-11-17T20:33:43.633Z,7.8
2022-11-17T20:35:44.980Z,7.8
2022-11-17T20:43:53.772Z,7.6
2022-11-17T20:45:55.150Z,7.6
2022-11-17T20:47:56.498Z,7.5
2022-11-17T20:49:57.858Z,7.6
2022-11-17T20:51:59.251Z,7.7
2022-11-17T20:56:05.307Z,7.7
2022-11-17T20:58:06.671Z,7.7
2022-11-17T21:04:10.756Z,7.7
2022-11-17T21:06:12.121Z,7.7
2022-11-17T21:14:20.928Z,7.8
2022-11-17T21:15:23.266Z,7.7
2022-11-17T21:21:27.382Z,7.6
2022-11-17T21:23:32.060Z,7.7
2022-11-17T21:25:33.432Z,7.7
2022-11-17T21:27:34.809Z,7.6
2022-11-17T21:29:36.162Z,7.6
2022-11-17T21:31:37.531Z,7.5
2022-11-17T21:33:38.902Z,7.5
2022-11-17T21:35:40.309Z,7.5
2022-11-17T21:37:44.953Z,7.7
2022-11-17T21:39:46.326Z,7.7
2022-11-17T21:41:47.686Z,7.6
2022-11-17T21:43:49.063Z,7.6
2022-11-17T21:45:50.468Z,7.5
2022-11-17T21:47:53.970Z,7.6
2022-11-17T21:49:53.162Z,7.6
2022-11-17T21:51:57.822Z,7.6
2022-11-17T21:56:00.572Z,7.5
2022-11-17T21:58:01.924Z,7.6
2022-11-17T22:00:03.343Z,7.5
2022-11-17T22:02:04.734Z,7.4
2022-11-17T22:04:06.085Z,7.4
2022-11-17T22:06:10.731Z,7.4
2022-11-17T22:08:12.112Z,7.4
2022-11-17T22:10:13.473Z,7.5
2022-11-17T22:11:15.829Z,7.5
2022-11-17T22:13:17.197Z,7.6
2022-11-17T22:15:18.557Z,7.5
2022-11-17T22:17:19.917Z,7.4
2022-11-17T22:19:24.600Z,7.2
2022-11-17T22:21:25.974Z,7.2
2022-11-17T22:23:27.330Z,7.1
2022-11-17T22:25:43.713Z,7.2
2022-11-17T22:27:30.061Z,7.3
2022-11-17T22:29:31.459Z,7.2
2022-11-17T22:31:32.823Z,7.2
2022-11-17T22:33:37.457Z,7.2
2022-11-17T22:35:38.836Z,7.2
2022-11-17T22:37:40.197Z,7.2
2022-11-17T22:39:41.593Z,7.1
2022-11-17T22:41:42.917Z,7.1
2022-11-17T22:43:44.279Z,7.1
2022-11-17T22:45:45.655Z,7.1
2022-11-17T22:49:51.702Z,7.1
2022-11-17T22:51:53.045Z,7.1
2022-11-17T22:53:54.422Z,7.2
2022-11-17T22:55:55.820Z,7.2
2022-11-17T22:57:57.276Z,7.1
2022-11-17T23:02:03.392Z,7
2022-11-17T23:06:06.119Z,6.9
2022-11-17T23:07:08.515Z,6.9
2022-11-17T23:09:09.840Z,7
2022-11-17T23:11:34.998Z,6.9
2022-11-17T23:13:12.581Z,7
2022-11-17T23:15:17.230Z,7
2022-11-17T23:17:18.582Z,7
2022-11-17T23:19:20.481Z,6.9
2022-11-17T23:21:21.309Z,7
2022-11-17T23:23:22.660Z,7
2022-11-17T23:25:24.033Z,6.9
2022-11-17T23:27:25.398Z,6.8
2022-11-17T23:29:30.063Z,6.9
2022-11-17T23:31:31.404Z,6.9
2022-11-17T23:33:32.800Z,6.8
2022-11-17T23:35:34.163Z,6.7
2022-11-17T23:37:35.524Z,6.6
2022-11-17T23:39:36.862Z,6.7
2022-11-17T23:43:43.023Z,6.6
2022-11-17T23:45:44.381Z,6.7
2022-11-17T23:47:45.795Z,6.7
2022-11-17T23:49:47.071Z,6.9
2022-11-17T23:51:48.435Z,6.9
2022-11-17T23:53:50.329Z,6.8
2022-11-17T23:55:51.722Z,6.7
2022-11-17T23:57:56.359Z,6.7
2022-11-17T23:59:57.744Z,6.7
